Time;durP1;ratioP1;P1;durP2;ratioP2;P2;SDS_P1;SDS_P2;PMS_P1;PMS_P2;Temp;Humidity;BMP_temperature;BMP_pressure;BME280_temperature;BME280_humidity;BME280_pressure;Samples;Min_cycle;Max_cycle;Signal;HPM_P1;HPM_P2
2022/06/30 00:01:11;;;;;;;13.38;10.53;;;;;;;19.84;100.00;100855.80;1729506;82;21145;-91
2022/06/30 00:03:38;;;;;;;15.70;10.45;;;;;;;19.86;100.00;100860.45;1707038;83;21509;-91
2022/06/30 00:06:06;;;;;;;12.82;9.65;;;;;;;19.89;100.00;100856.64;1700597;83;21156;-91
2022/06/30 00:08:33;;;;;;;12.85;10.20;;;;;;;19.89;100.00;100854.80;1729253;81;21046;-90
2022/06/30 00:11:06;;;;;;;15.40;10.90;;;;;;;19.88;100.00;100842.58;1677801;85;21070;-93
2022/06/30 00:13:29;;;;;;;14.95;10.55;;;;;;;19.88;100.00;100839.13;1726328;83;21351;-91
2022/06/30 00:15:57;;;;;;;16.85;10.28;;;;;;;19.87;100.00;100834.33;1677969;85;21023;-92
2022/06/30 00:18:24;;;;;;;16.17;10.28;;;;;;;19.89;100.00;100844.75;1729274;83;21285;-91
2022/06/30 00:20:52;;;;;;;13.43;10.80;;;;;;;19.86;100.00;100847.23;1678808;85;21067;-91
2022/06/30 00:23:20;;;;;;;13.85;9.93;;;;;;;19.85;100.00;100848.23;1710134;83;21557;-91
2022/06/30 00:25:47;;;;;;;20.65;9.55;;;;;;;19.85;100.00;100845.08;1710319;83;21130;-92
2022/06/30 00:28:15;;;;;;;16.30;9.65;;;;;;;19.83;100.00;100835.14;1710162;83;21044;-90
2022/06/30 00:30:42;;;;;;;16.15;9.55;;;;;;;19.79;100.00;100823.28;1710408;83;21056;-91
2022/06/30 00:33:09;;;;;;;14.20;9.95;;;;;;;19.77;100.00;100823.13;1710226;83;21087;-91
2022/06/30 00:35:36;;;;;;;10.28;9.00;;;;;;;19.74;100.00;100820.81;1710336;83;21091;-92
2022/06/30 00:38:04;;;;;;;14.47;9.08;;;;;;;19.71;100.00;100824.63;1710170;83;21261;-91
2022/06/30 00:40:40;;;;;;;13.53;9.23;;;;;;;19.69;100.00;100826.61;1710171;83;21116;-91
2022/06/30 00:43:07;;;;;;;13.38;9.75;;;;;;;19.71;100.00;100828.59;1710232;83;21112;-91
2022/06/30 00:45:41;;;;;;;13.38;9.93;;;;;;;19.71;100.00;100828.59;1710273;83;21068;-91
2022/06/30 00:48:09;;;;;;;12.47;8.93;;;;;;;19.71;100.00;100828.08;1709751;83;21658;-90
2022/06/30 00:50:37;;;;;;;12.45;9.38;;;;;;;19.69;100.00;100827.93;1710105;83;21158;-91
2022/06/30 00:53:07;;;;;;;14.98;9.80;;;;;;;19.68;100.00;100826.28;1710193;83;21028;-91
2022/06/30 00:55:36;;;;;;;16.20;10.88;;;;;;;19.64;100.00;100827.12;1710112;83;21040;-90
2022/06/30 00:58:08;;;;;;;12.03;10.23;;;;;;;19.61;100.00;100825.31;1710179;83;21044;-91
2022/06/30 01:00:39;;;;;;;11.97;9.03;;;;;;;19.59;100.00;100832.09;1710223;83;21012;-90
2022/06/30 01:03:08;;;;;;;13.85;10.08;;;;;;;19.57;100.00;100834.59;1707282;83;21150;-91
2022/06/30 01:05:37;;;;;;;13.90;9.93;;;;;;;19.56;100.00;100842.98;1710157;83;21021;-90
2022/06/30 01:08:05;;;;;;;14.73;10.40;;;;;;;19.55;100.00;100843.49;1710180;83;21059;-90
2022/06/30 01:13:19;;;;;;;15.38;10.88;;;;;;;19.57;100.00;100839.36;1709981;83;21083;-92
2022/06/30 01:15:49;;;;;;;17.40;10.32;;;;;;;19.51;100.00;100836.08;1710260;83;21122;-91
2022/06/30 01:18:19;;;;;;;12.53;9.98;;;;;;;19.43;100.00;100831.62;1709932;83;21056;-91
2022/06/30 01:20:47;;;;;;;15.35;9.43;;;;;;;19.37;100.00;100836.27;1710693;83;21032;-90
2022/06/30 01:23:16;;;;;;;13.75;9.85;;;;;;;19.32;100.00;100830.67;1711260;83;20989;-91
2022/06/30 01:25:46;;;;;;;13.18;9.75;;;;;;;19.29;100.00;100825.72;1711661;83;37082;-90
2022/06/30 01:28:14;;;;;;;13.97;10.40;;;;;;;19.29;100.00;100828.36;1711606;83;21895;-90
2022/06/30 01:30:41;;;;;;;16.42;10.50;;;;;;;19.26;100.00;100821.60;1711264;83;21025;-90
2022/06/30 01:33:09;;;;;;;13.98;10.08;;;;;;;19.25;100.00;100820.45;1711361;83;21056;-91
2022/06/30 01:35:38;;;;;;;14.90;9.55;;;;;;;19.23;100.00;100814.84;1711468;83;21494;-91
2022/06/30 01:38:06;;;;;;;12.95;10.15;;;;;;;19.23;100.00;100813.53;1711919;83;21550;-90
2022/06/30 01:40:35;;;;;;;16.70;10.55;;;;;;;19.23;100.00;100808.25;1711453;83;21147;-91
2022/06/30 01:43:06;;;;;;;15.93;9.30;;;;;;;19.23;100.00;100812.69;1711640;82;21112;-91
2022/06/30 01:45:33;;;;;;;16.85;8.93;;;;;;;19.23;100.00;100811.37;1711577;83;21041;-92
2022/06/30 01:48:01;;;;;;;12.68;9.05;;;;;;;19.22;100.00;100815.83;1711488;83;21091;-91
2022/06/30 01:50:30;;;;;;;12.37;9.13;;;;;;;19.20;100.00;100820.45;1711441;83;21016;-91
2022/06/30 01:53:00;;;;;;;12.07;8.13;;;;;;;19.19;100.00;100833.31;1711261;83;21148;-91
2022/06/30 01:55:28;;;;;;;12.55;8.65;;;;;;;19.15;100.00;100829.38;1711497;83;21029;-91
2022/06/30 01:57:57;;;;;;;16.07;9.15;;;;;;;19.14;100.00;100826.41;1711311;83;20986;-91
2022/06/30 02:00:26;;;;;;;15.23;8.68;;;;;;;19.14;100.00;100834.83;1711611;83;21037;-90
2022/06/30 02:02:55;;;;;;;15.13;8.33;;;;;;;19.14;100.00;100844.06;1711475;83;21471;-91
2022/06/30 02:05:24;;;;;;;11.30;8.78;;;;;;;19.14;100.00;100846.20;1711440;83;21152;-90
2022/06/30 02:07:53;;;;;;;13.10;9.00;;;;;;;19.14;100.00;100844.88;1711212;83;21506;-91
2022/06/30 02:10:23;;;;;;;15.70;8.60;;;;;;;19.15;100.00;100847.04;1711312;83;21726;-91
2022/06/30 02:12:51;;;;;;;12.23;8.88;;;;;;;19.14;100.00;100850.16;1711315;83;21024;-90
2022/06/30 02:15:32;;;;;;;10.32;8.83;;;;;;;19.12;100.00;100845.53;1711697;83;20996;-90
2022/06/30 02:17:58;;;;;;;10.15;8.48;;;;;;;19.15;100.00;100839.12;1708151;83;21865;-91
2022/06/30 02:20:25;;;;;;;11.00;8.00;;;;;;;19.17;100.00;100841.08;1711506;83;20992;-90
2022/06/30 02:22:59;;;;;;;12.37;8.88;;;;;;;19.17;100.00;100836.64;1711412;83;21044;-90
2022/06/30 02:25:28;;;;;;;9.63;7.47;;;;;;;19.18;100.00;100842.25;1711428;83;21031;-91
2022/06/30 02:27:56;;;;;;;10.98;7.97;;;;;;;19.21;100.00;100845.86;1711267;83;21036;-91
2022/06/30 02:30:24;;;;;;;10.95;8.13;;;;;;;19.23;100.00;100855.77;1711457;83;21300;-91
2022/06/30 02:32:52;;;;;;;13.45;7.80;;;;;;;19.26;100.00;100864.34;1711391;83;21052;-91
2022/06/30 02:35:20;;;;;;;10.82;7.75;;;;;;;19.27;100.00;100868.64;1711393;83;20989;-91
2022/06/30 02:37:50;;;;;;;14.70;8.10;;;;;;;19.28;100.00;100874.22;1711575;83;21001;-91
2022/06/30 02:40:17;;;;;;;12.45;8.70;;;;;;;19.27;100.00;100878.69;1711509;83;21042;-91
2022/06/30 02:42:47;;;;;;;15.20;9.13;;;;;;;19.25;100.00;100881.98;1712295;83;21696;-91
2022/06/30 02:45:14;;;;;;;13.68;9.85;;;;;;;19.22;100.00;100883.14;1714639;83;20965;-91
2022/06/30 02:47:43;;;;;;;12.95;8.58;;;;;;;19.21;100.00;100886.77;1714665;83;21044;-91
2022/06/30 02:50:12;;;;;;;12.25;8.30;;;;;;;19.19;100.00;100883.47;1714820;83;21498;-91
2022/06/30 02:52:40;;;;;;;12.40;8.28;;;;;;;19.19;100.00;100890.06;1714696;83;21032;-90
2022/06/30 02:55:08;;;;;;;14.33;8.95;;;;;;;19.17;100.00;100893.39;1714652;83;21758;-91
2022/06/30 02:57:37;;;;;;;17.60;11.40;;;;;;;19.16;100.00;100890.41;1714692;83;21008;-91
2022/06/30 03:00:08;;;;;;;13.55;9.53;;;;;;;19.15;100.00;100895.36;1714765;83;21115;-91
2022/06/30 03:02:36;;;;;;;15.48;8.65;;;;;;;19.11;100.00;100895.34;1714835;83;21012;-92
2022/06/30 03:05:07;;;;;;;10.55;8.65;;;;;;;19.09;100.00;100894.70;1714857;83;21064;-91
2022/06/30 03:07:36;;;;;;;12.30;8.00;;;;;;;19.08;100.00;100895.19;1714916;83;21176;-91
2022/06/30 03:10:04;;;;;;;9.95;7.50;;;;;;;19.08;100.00;100884.63;1714598;83;21047;-91
2022/06/30 03:12:32;;;;;;;9.60;8.08;;;;;;;19.13;100.00;100888.09;1714523;83;21024;-91
2022/06/30 03:14:59;;;;;;;12.88;7.90;;;;;;;19.16;100.00;100887.77;1715044;83;21593;-91
2022/06/30 03:17:26;;;;;;;13.58;7.70;;;;;;;19.21;100.00;100897.33;1714666;83;21064;-91
2022/06/30 03:19:56;;;;;;;13.35;7.62;;;;;;;19.24;100.00;100896.17;1712808;82;21123;-91
2022/06/30 03:22:23;;;;;;;12.75;7.67;;;;;;;19.27;100.00;100906.92;1719732;83;21003;-90
2022/06/30 03:24:50;;;;;;;11.55;8.30;;;;;;;19.28;100.00;100917.30;1743955;82;21446;-91
2022/06/30 03:27:18;;;;;;;17.17;8.85;;;;;;;19.31;100.00;100925.38;1743763;82;21015;-90
2022/06/30 03:29:45;;;;;;;10.50;7.80;;;;;;;19.28;100.00;100931.82;1743729;82;21000;-91
2022/06/30 03:32:12;;;;;;;10.38;7.90;;;;;;;19.23;100.00;100924.87;1744223;82;21116;-91
2022/06/30 03:34:39;;;;;;;8.93;7.40;;;;;;;19.20;100.00;100918.63;1743634;82;21060;-91
2022/06/30 03:37:07;;;;;;;8.48;6.95;;;;;;;19.21;100.00;100918.95;1743855;82;21577;-90
2022/06/30 03:39:34;;;;;;;8.35;7.15;;;;;;;19.25;100.00;100914.98;1743932;82;21023;-90
2022/06/30 03:42:01;;;;;;;14.90;7.85;;;;;;;19.32;100.00;100923.08;1744108;82;21000;-90
2022/06/30 03:44:28;;;;;;;10.23;7.42;;;;;;;19.37;100.00;100917.63;1743533;82;21156;-91
2022/06/30 03:46:56;;;;;;;11.35;7.20;;;;;;;19.40;100.00;100920.43;1743996;82;21568;-90
2022/06/30 03:49:24;;;;;;;12.40;8.25;;;;;;;19.38;100.00;100922.41;1743671;82;21012;-91
2022/06/30 03:51:51;;;;;;;15.78;10.40;;;;;;;19.38;100.00;100923.73;1743965;82;21063;-91
2022/06/30 03:54:19;;;;;;;17.92;10.88;;;;;;;19.37;100.00;100924.23;1743893;82;21035;-91
2022/06/30 03:56:47;;;;;;;15.32;8.88;;;;;;;19.37;100.00;100919.44;1744050;82;21811;-91
2022/06/30 03:59:14;;;;;;;13.00;7.75;;;;;;;19.38;100.00;100917.97;1743828;82;21043;-91
2022/06/30 04:01:41;;;;;;;11.50;7.65;;;;;;;19.40;100.00;100917.79;1744141;82;21731;-91
2022/06/30 04:04:08;;;;;;;9.55;7.72;;;;;;;19.41;100.00;100923.41;1744082;82;21074;-92
2022/06/30 04:06:36;;;;;;;12.45;7.95;;;;;;;19.41;100.00;100919.45;1743821;82;21574;-92
2022/06/30 04:09:04;;;;;;;16.50;8.23;;;;;;;19.40;100.00;100920.43;1743818;82;21087;-92
2022/06/30 04:11:32;;;;;;;11.53;7.92;;;;;;;19.40;100.00;100916.47;1743538;82;21007;-91
2022/06/30 04:14:01;;;;;;;11.43;7.58;;;;;;;19.41;100.00;100917.28;1743989;82;21095;-91
2022/06/30 04:16:29;;;;;;;13.43;7.75;;;;;;;19.41;100.00;100920.77;1743709;82;21024;-91
2022/06/30 04:18:56;;;;;;;11.90;8.23;;;;;;;19.43;100.00;100917.95;1744068;82;21087;-90
2022/06/30 04:21:23;;;;;;;11.33;7.80;;;;;;;19.46;100.00;100922.91;1743263;82;21114;-91
2022/06/30 04:23:51;;;;;;;12.43;7.47;;;;;;;19.48;100.00;100920.42;1742629;82;21126;-91
2022/06/30 04:26:18;;;;;;;11.65;8.00;;;;;;;19.52;100.00;100919.59;1742752;82;21031;-91
2022/06/30 04:28:45;;;;;;;14.80;7.83;;;;;;;19.57;100.00;100915.13;1742721;82;21063;-91
2022/06/30 04:33:58;;;;;;;10.72;7.20;;;;;;;19.71;100.00;100919.22;1742364;82;21137;-91
2022/06/30 04:36:25;;;;;;;12.98;7.37;;;;;;;19.82;100.00;100918.06;1741679;82;21016;-91
2022/06/30 04:38:52;;;;;;;15.25;7.00;;;;;;;19.94;100.00;100921.20;1738941;82;21035;-90
2022/06/30 04:41:26;;;;;;;10.18;7.05;;;;;;;20.03;100.00;100916.70;1738915;82;21042;-90
2022/06/30 04:43:55;;;;;;;9.63;6.72;;;;;;;20.10;100.00;100917.66;1738785;82;21047;-90
2022/06/30 04:46:24;;;;;;;12.78;7.08;;;;;;;20.18;100.00;100912.34;1739185;82;21486;-91
2022/06/30 04:48:52;;;;;;;10.53;6.95;;;;;;;20.24;100.00;100908.68;1738559;82;21054;-91
2022/06/30 04:51:20;;;;;;;14.05;7.05;;;;;;;20.27;100.00;100913.63;1738559;82;21098;-90
2022/06/30 04:53:49;;;;;;;11.35;7.22;;;;;;;20.29;100.00;100909.81;1738724;82;21569;-90
2022/06/30 04:56:17;;;;;;;16.97;7.50;;;;;;;20.31;100.00;100905.70;1739191;82;21085;-91
2022/06/30 04:58:45;;;;;;;15.80;8.23;;;;;;;20.33;100.00;100907.66;1739060;82;21144;-91
2022/06/30 05:01:12;;;;;;;13.30;7.67;;;;;;;20.35;100.00;100906.98;1738527;81;21050;-92
2022/06/30 05:03:40;;;;;;;11.38;8.43;;;;;;;20.40;100.00;100906.47;1693176;83;21010;-90
2022/06/30 05:06:08;;;;;;;16.32;7.37;;;;;;;20.43;100.00;100904.81;1745451;82;21102;-90
2022/06/30 05:08:35;;;;;;;11.93;7.58;;;;;;;20.43;100.00;100902.17;1744474;82;21026;-89
2022/06/30 05:11:03;;;;;;;11.25;7.28;;;;;;;20.41;100.00;100908.94;1744330;82;21146;-91
2022/06/30 05:13:30;;;;;;;9.70;6.60;;;;;;;20.42;100.00;100909.27;1744444;82;21561;-90
2022/06/30 05:15:57;;;;;;;15.93;6.70;;;;;;;20.40;100.00;100909.11;1744467;82;21003;-89
2022/06/30 05:18:26;;;;;;;11.78;6.90;;;;;;;20.39;100.00;100908.79;1744750;82;21038;-90
2022/06/30 05:20:54;;;;;;;12.43;6.50;;;;;;;20.40;100.00;100913.08;1744575;82;21011;-89
2022/06/30 05:23:21;;;;;;;11.53;6.78;;;;;;;20.43;100.00;100919.36;1744475;82;21721;-89
2022/06/30 05:28:34;;;;;;;12.47;6.87;;;;;;;20.43;100.00;100910.91;1744404;81;21021;-91
2022/06/30 05:31:01;;;;;;;34.45;10.55;;;;;;;20.44;100.00;100912.56;1740678;82;21627;-89
2022/06/30 05:33:28;;;;;;;26.07;9.48;;;;;;;20.45;100.00;100907.61;1723997;83;21034;-90
2022/06/30 05:35:59;;;;;;;10.82;6.67;;;;;;;20.47;100.00;100919.33;1723938;83;21648;-89
2022/06/30 05:38:26;;;;;;;12.07;6.33;;;;;;;20.48;100.00;100915.69;1723696;83;21015;-89
2022/06/30 05:40:53;;;;;;;10.82;6.42;;;;;;;20.53;100.00;100923.11;1723650;83;21072;-89
2022/06/30 05:43:21;;;;;;;9.60;6.30;;;;;;;20.57;100.00;100925.23;1723603;83;21030;-89
2022/06/30 05:45:51;;;;;;;10.58;6.47;;;;;;;20.61;100.00;100917.77;1724030;83;21110;-89
2022/06/30 05:48:18;;;;;;;16.60;7.55;;;;;;;20.67;100.00;100922.36;1720405;83;21083;-91
2022/06/30 05:50:45;;;;;;;8.45;6.15;;;;;;;20.73;100.00;100928.30;1727776;82;21064;-89
2022/06/30 05:53:13;;;;;;;10.95;6.83;;;;;;;20.75;100.00;100923.66;1731998;82;21033;-90
2022/06/30 05:55:39;;;;;;;8.03;6.25;;;;;;;20.77;100.00;100923.00;1732353;82;21022;-89
2022/06/30 05:58:07;;;;;;;15.60;7.45;;;;;;;20.79;100.00;100920.97;1731863;82;21119;-90
2022/06/30 06:00:35;;;;;;;10.48;6.85;;;;;;;20.82;100.00;100920.30;1731785;81;21294;-89
2022/06/30 06:03:03;;;;;;;12.98;6.58;;;;;;;20.84;100.00;100919.13;1732124;82;21539;-89
2022/06/30 06:05:30;;;;;;;13.15;6.85;;;;;;;20.86;100.00;100926.91;1732048;82;21018;-89
2022/06/30 06:08:07;;;;;;;13.48;7.03;;;;;;;20.85;100.00;100931.36;1732091;82;21022;-89
2022/06/30 06:10:36;;;;;;;15.25;6.47;;;;;;;20.85;100.00;100935.33;1731751;82;21053;-91
2022/06/30 06:13:05;;;;;;;10.58;7.10;;;;;;;20.86;100.00;100931.69;1732243;82;21567;-89
2022/06/30 06:15:32;;;;;;;13.18;7.47;;;;;;;20.84;100.00;100930.22;1731997;82;21085;-89
2022/06/30 06:17:59;;;;;;;15.98;7.90;;;;;;;20.83;100.00;100929.90;1731815;82;21056;-89
2022/06/30 06:20:27;;;;;;;11.50;7.35;;;;;;;20.82;100.00;100929.56;1732075;82;20978;-88
2022/06/30 06:22:54;;;;;;;12.33;6.55;;;;;;;20.85;100.00;100926.58;1733444;82;21041;-89
2022/06/30 06:25:22;;;;;;;13.13;6.30;;;;;;;20.89;100.00;100930.03;1734248;82;21558;-88
2022/06/30 06:30:36;;;;;;;20.50;6.67;;;;;;;21.07;100.00;100928.92;1734177;81;21057;-89
2022/06/30 06:33:03;;;;;;;13.20;6.45;;;;;;;21.15;100.00;100927.53;1734395;82;21018;-88
2022/06/30 06:35:31;;;;;;;13.95;6.35;;;;;;;21.23;100.00;100923.47;1734065;82;20961;-88
2022/06/30 06:37:58;;;;;;;9.75;6.70;;;;;;;21.31;100.00;100921.27;1734218;82;21790;-88
2022/06/30 06:40:25;;;;;;;12.07;6.65;;;;;;;21.36;100.00;100917.56;1734129;82;20986;-90
2022/06/30 06:42:52;;;;;;;9.18;6.35;;;;;;;21.39;100.00;100917.22;1734146;82;21665;-89
2022/06/30 06:45:19;;;;;;;11.00;5.95;;;;;;;21.44;100.00;100912.19;1734406;82;21014;-89
2022/06/30 06:47:48;;;;;;;8.35;6.05;;;;;;;21.51;100.00;100914.14;1734328;82;21104;-89
2022/06/30 06:50:15;;;;;;;10.23;6.33;;;;;;;21.57;100.00;100913.42;1734523;82;21159;-89
2022/06/30 06:52:43;;;;;;;7.80;6.10;;;;;;;21.64;100.00;100914.84;1733794;82;21006;-89
2022/06/30 06:55:10;;;;;;;9.83;6.83;;;;;;;21.67;100.00;100915.31;1734180;82;21092;-89
2022/06/30 06:57:39;;;;;;;11.28;6.22;;;;;;;21.70;100.00;100910.98;1707978;82;20991;-89
2022/06/30 07:00:12;;;;;;;15.48;5.87;;;;;;;21.73;100.00;100911.11;1660993;85;21184;-89
2022/06/30 07:02:40;;;;;;;6.83;5.50;;;;;;;21.78;100.00;100911.90;1668810;85;21054;-89
2022/06/30 07:05:09;;;;;;;9.48;5.70;;;;;;;21.82;100.00;100903.92;1683279;84;21584;-89
2022/06/30 07:07:38;;;;;;;6.95;5.83;;;;;;;21.87;100.00;100904.18;1684094;83;21628;-89
2022/06/30 07:10:08;;;;;;;11.68;6.25;;;;;;;21.92;100.00;100900.98;1685232;83;21154;-89
2022/06/30 07:12:35;;;;;;;8.93;6.15;;;;;;;22.00;100.00;100897.72;1721000;81;21704;-89
2022/06/30 07:15:04;;;;;;;10.03;6.30;;;;;;;22.06;100.00;100899.66;1712934;83;21195;-89
2022/06/30 07:17:38;;;;;;;10.55;6.20;;;;;;;22.16;100.00;100902.50;1707575;83;21076;-88
2022/06/30 07:20:06;;;;;;;7.40;6.60;;;;;;;22.23;100.00;100899.45;1661146;83;21087;-89
2022/06/30 07:22:34;;;;;;;12.68;6.55;;;;;;;22.29;100.00;100904.50;1711237;82;21069;-89
2022/06/30 07:25:02;;;;;;;9.23;5.95;;;;;;;22.34;100.00;100909.56;1719268;83;21098;-89
2022/06/30 07:27:32;;;;;;;13.32;6.75;;;;;;;22.40;100.00;100907.20;1717755;81;21742;-89
2022/06/30 07:29:59;;;;;;;8.55;6.72;;;;;;;22.45;100.00;100914.92;1712119;83;21058;-89
2022/06/30 07:32:26;;;;;;;10.05;7.00;;;;;;;22.51;100.00;100917.34;1711291;83;21070;-89
2022/06/30 07:34:53;;;;;;;9.60;7.08;;;;;;;22.52;100.00;100915.01;1711605;83;21077;-89
2022/06/30 07:37:20;;;;;;;10.80;6.58;;;;;;;22.46;100.00;100921.87;1712186;83;21107;-89
2022/06/30 07:39:50;;;;;;;13.13;6.92;;;;;;;22.36;100.00;100921.31;1710689;82;21130;-89
2022/06/30 07:42:18;;;;;;;12.40;7.20;;;;;;;22.29;100.00;100928.37;1701700;83;21625;-89
2022/06/30 07:44:45;;;;;;;9.53;7.05;;;;;;;22.25;100.00;100925.27;1699293;83;21041;-88
2022/06/30 07:47:13;;;;;;;9.85;7.22;;;;;;;22.22;100.00;100920.35;1714437;82;21012;-89
2022/06/30 07:49:40;;;;;;;14.07;7.12;;;;;;;22.18;100.00;100921.71;1699997;83;21103;-88
2022/06/30 07:52:07;;;;;;;10.85;7.87;;;;;;;22.17;100.00;100920.06;1714893;82;21145;-89
2022/06/30 07:54:35;;;;;;;15.68;7.85;;;;;;;22.19;100.00;100924.69;1718795;82;21530;-89
2022/06/30 07:57:02;;;;;;;22.75;8.30;;;;;;;22.21;100.00;100918.70;1712387;83;21078;-90
2022/06/30 07:59:29;;;;;;;14.30;7.33;;;;;;;22.21;100.00;100924.00;1721490;82;21033;-89
2022/06/30 08:01:57;;;;;;;17.25;8.23;;;;;;;22.21;100.00;100920.03;1714861;82;21008;-89
2022/06/30 08:04:24;;;;;;;16.40;8.28;;;;;;;22.21;100.00;100918.70;1718066;82;21159;-90
2022/06/30 08:06:51;;;;;;;16.27;8.38;;;;;;;22.18;100.00;100920.38;1693598;82;20959;-89
2022/06/30 08:09:19;;;;;;;14.65;8.03;;;;;;;22.17;100.00;100918.73;1737939;82;21102;-89
2022/06/30 08:11:46;;;;;;;13.32;7.87;;;;;;;22.15;100.00;100912.30;1740354;82;20998;-88
2022/06/30 08:14:13;;;;;;;13.08;8.05;;;;;;;22.11;100.00;100910.20;1739804;81;21090;-89
2022/06/30 08:16:41;;;;;;;12.30;8.93;;;;;;;22.11;100.00;100910.20;1735164;82;21188;-89
2022/06/30 08:19:08;;;;;;;15.50;8.93;;;;;;;22.14;100.00;100905.87;1720061;81;21064;-88
2022/06/30 08:21:35;;;;;;;15.70;9.05;;;;;;;22.19;100.00;100914.08;1734821;82;21016;-88
2022/06/30 08:24:03;;;;;;;15.98;9.05;;;;;;;22.24;100.00;100917.50;1737187;81;21081;-89
2022/06/30 08:26:31;;;;;;;13.78;9.03;;;;;;;22.25;100.00;100914.66;1753686;81;21497;-89
2022/06/30 08:28:58;;;;;;;11.73;7.87;;;;;;;22.26;100.00;100907.02;1753105;81;21285;-89
2022/06/30 08:31:27;;;;;;;16.93;9.03;;;;;;;22.34;100.00;100908.24;1754433;81;21014;-90
2022/06/30 08:33:55;;;;;;;14.80;8.43;;;;;;;22.40;100.00;100896.59;1743322;81;21067;-90
2022/06/30 08:36:23;;;;;;;17.48;8.43;;;;;;;22.43;100.00;100897.55;1740579;81;21049;-90
2022/06/30 08:38:50;;;;;;;15.10;8.33;;;;;;;22.45;100.00;100894.22;1754290;81;20986;-89
2022/06/30 08:44:03;;;;;;;10.45;7.85;;;;;;;22.50;100.00;100894.47;1731437;82;21012;-88
2022/06/30 08:46:33;;;;;;;12.75;8.55;;;;;;;22.54;100.00;100893.09;1731904;81;21524;-90
2022/06/30 08:49:00;;;;;;;13.22;8.53;;;;;;;22.58;100.00;100890.37;1748631;81;20979;-88
2022/06/30 08:51:29;;;;;;;14.47;9.20;;;;;;;22.66;100.00;100888.92;1729748;81;21006;-88
2022/06/30 08:54:02;;;;;;;16.00;9.75;;;;;;;22.80;100.00;100891.70;1742171;81;21160;-90
2022/06/30 08:56:34;;;;;;;15.35;8.48;;;;;;;22.91;100.00;100887.73;1735896;82;21052;-89
2022/06/30 08:59:04;;;;;;;;;;;;;;;22.99;100.00;100895.58;1728982;82;21504;-89
2022/06/30 09:01:32;;;;;;;14.35;8.35;;;;;;;23.03;100.00;100890.19;1740690;80;20159;-89
2022/06/30 09:04:00;;;;;;;11.48;8.25;;;;;;;23.04;100.00;100889.66;1754993;81;21533;-89
2022/06/30 09:06:28;;;;;;;13.93;7.62;;;;;;;23.05;100.00;100886.00;1755480;81;21462;-88
2022/06/30 09:08:55;;;;;;;11.40;7.40;;;;;;;23.12;100.00;100878.91;1756147;81;21047;-89
2022/06/30 09:11:44;;;;;;;15.10;8.03;;;;;;;23.18;100.00;100880.84;1748446;81;21118;-89
2022/06/30 09:14:11;;;;;;;13.28;7.35;;;;;;;23.20;100.00;100874.81;1732370;82;21013;-87
2022/06/30 09:16:53;;;;;;;13.28;7.67;;;;;;;23.21;100.00;100872.47;1743018;81;21359;-89
2022/06/30 09:19:20;;;;;;;13.30;7.87;;;;;;;23.20;100.00;100875.33;1744103;81;21254;-89
2022/06/30 09:22:14;;;;;;;10.03;7.42;;;;;;;23.18;100.00;100879.52;1753591;81;21045;-90
2022/06/30 09:24:41;;;;;;;10.10;6.97;;;;;;;23.17;100.00;100880.50;1732876;81;20998;-89
2022/06/30 09:27:21;;;;;;;11.40;7.37;;;;;;;23.15;100.00;100885.17;1725475;81;21168;-92
2022/06/30 09:30:09;;;;;;;9.83;6.70;;;;;;;23.13;100.00;100881.88;1747182;81;20946;-89
2022/06/30 09:32:55;;;;;;;12.70;7.17;;;;;;;23.11;100.00;100879.94;1751504;81;21816;-90
2022/06/30 09:35:26;;;;;;;16.85;7.62;;;;;;;23.11;100.00;100882.60;1754455;81;21061;-88
2022/06/30 09:38:10;;;;;;;12.78;6.87;;;;;;;23.06;100.00;100876.53;1743499;82;21556;-89
2022/06/30 09:43:34;;;;;;;9.25;6.75;;;;;;;22.98;100.00;100878.80;1702095;82;21071;-89
2022/06/30 09:46:01;;;;;;;13.28;6.90;;;;;;;22.94;100.00;100880.22;1716596;82;21137;-89
2022/06/30 09:48:32;;;;;;;12.82;6.28;;;;;;;22.87;100.00;100875.36;1752527;81;21080;-90
2022/06/30 09:51:03;;;;;;;10.13;6.53;;;;;;;22.83;100.00;100874.88;1728456;82;21379;-90
2022/06/30 09:53:31;;;;;;;10.28;6.47;;;;;;;22.80;100.00;100877.09;1725297;82;21052;-89
2022/06/30 09:56:13;;;;;;;7.62;6.05;;;;;;;22.80;100.00;100875.77;1711350;83;20984;-89
2022/06/30 09:58:45;;;;;;;12.25;7.35;;;;;;;22.75;100.00;100865.75;1735584;81;21452;-90
2022/06/30 10:01:12;;;;;;;10.30;7.22;;;;;;;22.75;100.00;100865.75;1723136;81;21021;-89
2022/06/30 10:03:48;;;;;;;10.98;6.55;;;;;;;22.75;100.00;100870.22;1719904;81;21021;-89
2022/06/30 10:06:17;;;;;;;11.48;7.50;;;;;;;22.74;100.00;100874.72;1735149;82;21026;-90
2022/06/30 10:08:45;;;;;;;29.30;7.60;;;;;;;22.71;100.00;100864.47;1721052;83;21536;-89
2022/06/30 10:11:14;;;;;;;15.43;6.83;;;;;;;22.70;100.00;100864.16;1709092;83;21147;-89
2022/06/30 10:13:43;;;;;;;8.83;6.10;;;;;;;22.69;100.00;100863.34;1700541;83;20993;-88
2022/06/30 10:16:13;;;;;;;8.35;5.97;;;;;;;22.71;100.00;100855.70;1633287;86;21118;-89
2022/06/30 10:18:40;;;;;;;10.35;6.40;;;;;;;22.73;100.00;100857.64;1682761;83;21546;-89
2022/06/30 10:21:08;;;;;;;13.05;6.08;;;;;;;22.75;100.00;100854.30;1709050;82;21543;-89
2022/06/30 10:23:36;;;;;;;9.48;6.33;;;;;;;22.80;100.00;100858.03;1720755;82;21242;-90
2022/06/30 10:26:06;;;;;;;13.48;6.65;;;;;;;22.88;100.00;100861.04;1669303;84;21056;-88
2022/06/30 10:28:33;;;;;;;8.48;5.72;;;;;;;22.93;100.00;100864.45;1677242;83;21121;-89
2022/06/30 10:31:27;;;;;;;9.80;6.67;;;;;;;22.92;100.00;100860.99;1674119;84;21547;-90
2022/06/30 10:34:11;;;;;;;12.47;6.47;;;;;;;22.94;100.00;100861.63;1667126;85;21035;-88
2022/06/30 10:36:59;;;;;;;10.10;6.42;;;;;;;22.97;100.00;100869.19;1720339;81;21191;-89
2022/06/30 10:39:40;;;;;;;13.28;6.35;;;;;;;23.00;100.00;100870.64;1743907;81;21144;-90
2022/06/30 10:42:10;;;;;;;17.25;8.25;;;;;;;23.03;100.00;100870.79;1735126;81;21547;-89
2022/06/30 10:44:37;;;;;;;14.47;7.10;;;;;;;23.07;100.00;100869.38;1734008;81;21041;-90
2022/06/30 10:47:06;;;;;;;9.48;6.00;;;;;;;23.10;100.00;100871.66;1717183;81;21065;-89
2022/06/30 10:49:35;;;;;;;8.83;6.20;;;;;;;23.14;100.00;100870.25;1717250;81;21155;-88
2022/06/30 10:52:24;;;;;;;8.20;5.78;;;;;;;23.16;100.00;100869.03;1722485;82;20997;-88
2022/06/30 10:55:01;;;;;;;13.53;5.70;;;;;;;23.19;100.00;100873.20;1715901;81;21016;-88
2022/06/30 10:58:02;;;;;;;14.07;6.30;;;;;;;23.21;100.00;100879.11;1706994;82;21539;-89
2022/06/30 11:00:51;;;;;;;11.88;5.72;;;;;;;23.24;100.00;100874.75;1738603;81;21701;-89
2022/06/30 11:03:37;;;;;;;11.20;5.20;;;;;;;23.25;100.00;100879.06;1728818;81;21096;-88
2022/06/30 11:06:09;;;;;;;15.23;6.25;;;;;;;23.26;100.00;100879.38;1728034;81;21024;-88
2022/06/30 11:08:48;;;;;;;11.88;5.62;;;;;;;23.28;100.00;100876.00;1740003;81;21026;-88
2022/06/30 11:11:27;;;;;;;18.92;5.90;;;;;;;23.31;100.00;100871.64;1737736;81;21052;-89
2022/06/30 11:14:08;;;;;;;13.60;5.75;;;;;;;23.36;100.00;100871.06;1715143;82;21003;-88
2022/06/30 11:16:39;;;;;;;8.33;5.60;;;;;;;23.43;100.00;100873.77;1732142;81;21166;-89
2022/06/30 11:19:16;;;;;;;10.72;5.75;;;;;;;23.46;100.00;100872.03;1724632;82;21455;-90
2022/06/30 11:21:45;;;;;;;20.75;5.62;;;;;;;23.48;97.60;100872.14;1740679;81;21104;-89
2022/06/30 11:24:16;;;;;;;10.15;5.75;;;;;;;23.51;91.54;100869.63;1733811;81;21508;-88
2022/06/30 11:29:31;;;;;;;11.15;5.60;;;;;;;23.60;88.28;100871.61;1744278;81;21734;-89
2022/06/30 11:32:00;;;;;;;10.58;5.30;;;;;;;23.64;87.28;100870.20;1736892;81;21509;-89
2022/06/30 11:34:28;;;;;;;8.65;4.85;;;;;;;23.66;85.95;100874.81;1739394;82;21521;-88
2022/06/30 11:36:55;;;;;;;7.72;4.72;;;;;;;23.65;83.43;100867.85;1736946;82;21058;-88
2022/06/30 11:39:23;;;;;;;5.90;4.42;;;;;;;23.65;81.73;100871.84;1739440;82;21356;-88